sensor_id;sensor_type;location;lat;lon;timestamp;P1;durP1;ratioP1;P2;durP2;ratioP2
62030;SDS011;62035;52.094;5.112;2023-07-30T00:02:18;8.35;;;2.80;;
62030;SDS011;62035;52.094;5.112;2023-07-30T00:04:46;8.45;;;2.30;;
62030;SDS011;62035;52.094;5.112;2023-07-30T00:07:13;10.23;;;2.05;;
62030;SDS011;62035;52.094;5.112;2023-07-30T00:09:41;15.65;;;2.92;;
62030;SDS011;62035;52.094;5.112;2023-07-30T00:12:10;12.68;;;2.58;;
62030;SDS011;62035;52.094;5.112;2023-07-30T00:14:37;12.77;;;2.38;;
62030;SDS011;62035;52.094;5.112;2023-07-30T00:17:04;11.90;;;3.10;;
62030;SDS011;62035;52.094;5.112;2023-07-30T00:19:32;11.00;;;2.42;;
62030;SDS011;62035;52.094;5.112;2023-07-30T00:22:01;14.27;;;2.38;;
62030;SDS011;62035;52.094;5.112;2023-07-30T00:24:28;14.00;;;3.35;;
62030;SDS011;62035;52.094;5.112;2023-07-30T00:26:55;11.13;;;2.47;;
62030;SDS011;62035;52.094;5.112;2023-07-30T00:29:24;12.50;;;3.05;;
62030;SDS011;62035;52.094;5.112;2023-07-30T00:31:51;9.27;;;2.20;;
62030;SDS011;62035;52.094;5.112;2023-07-30T00:34:18;8.02;;;2.40;;
62030;SDS011;62035;52.094;5.112;2023-07-30T00:36:45;14.65;;;3.05;;
62030;SDS011;62035;52.094;5.112;2023-07-30T00:39:13;11.75;;;2.20;;
62030;SDS011;62035;52.094;5.112;2023-07-30T00:41:40;9.93;;;2.33;;
62030;SDS011;62035;52.094;5.112;2023-07-30T00:44:06;8.80;;;2.42;;
62030;SDS011;62035;52.094;5.112;2023-07-30T00:46:35;9.82;;;2.28;;
62030;SDS011;62035;52.094;5.112;2023-07-30T00:49:02;7.38;;;2.70;;
62030;SDS011;62035;52.094;5.112;2023-07-30T00:51:29;14.43;;;2.47;;
62030;SDS011;62035;52.094;5.112;2023-07-30T00:53:59;11.38;;;3.03;;
62030;SDS011;62035;52.094;5.112;2023-07-30T00:56:27;13.32;;;2.55;;
62030;SDS011;62035;52.094;5.112;2023-07-30T00:58:54;11.27;;;3.30;;
62030;SDS011;62035;52.094;5.112;2023-07-30T01:01:22;18.17;;;2.72;;
62030;SDS011;62035;52.094;5.112;2023-07-30T01:03:51;12.68;;;2.70;;
62030;SDS011;62035;52.094;5.112;2023-07-30T01:06:18;11.95;;;2.40;;
62030;SDS011;62035;52.094;5.112;2023-07-30T01:08:46;14.43;;;2.90;;
62030;SDS011;62035;52.094;5.112;2023-07-30T01:11:14;12.15;;;2.47;;
62030;SDS011;62035;52.094;5.112;2023-07-30T01:13:42;9.13;;;2.50;;
62030;SDS011;62035;52.094;5.112;2023-07-30T01:16:09;9.15;;;2.65;;
62030;SDS011;62035;52.094;5.112;2023-07-30T01:18:37;14.20;;;2.90;;
62030;SDS011;62035;52.094;5.112;2023-07-30T01:21:06;12.98;;;3.13;;
62030;SDS011;62035;52.094;5.112;2023-07-30T01:23:33;11.63;;;2.83;;
62030;SDS011;62035;52.094;5.112;2023-07-30T01:26:02;15.55;;;3.30;;
62030;SDS011;62035;52.094;5.112;2023-07-30T01:28:36;14.40;;;2.85;;
62030;SDS011;62035;52.094;5.112;2023-07-30T01:31:04;10.20;;;2.63;;
62030;SDS011;62035;52.094;5.112;2023-07-30T01:33:33;12.40;;;3.13;;
62030;SDS011;62035;52.094;5.112;2023-07-30T01:36:00;12.93;;;3.03;;
62030;SDS011;62035;52.094;5.112;2023-07-30T01:38:30;7.72;;;2.53;;
62030;SDS011;62035;52.094;5.112;2023-07-30T01:40:57;14.23;;;2.45;;
62030;SDS011;62035;52.094;5.112;2023-07-30T01:43:25;13.73;;;3.00;;
62030;SDS011;62035;52.094;5.112;2023-07-30T01:45:52;13.55;;;2.97;;
62030;SDS011;62035;52.094;5.112;2023-07-30T01:48:19;13.38;;;3.15;;
62030;SDS011;62035;52.094;5.112;2023-07-30T01:50:46;12.30;;;3.13;;
62030;SDS011;62035;52.094;5.112;2023-07-30T01:53:14;12.60;;;2.88;;
62030;SDS011;62035;52.094;5.112;2023-07-30T01:55:43;19.77;;;3.47;;
62030;SDS011;62035;52.094;5.112;2023-07-30T01:58:11;20.05;;;3.10;;
62030;SDS011;62035;52.094;5.112;2023-07-30T02:00:39;10.38;;;3.00;;
62030;SDS011;62035;52.094;5.112;2023-07-30T02:03:06;15.90;;;3.97;;
62030;SDS011;62035;52.094;5.112;2023-07-30T02:05:34;17.80;;;3.45;;
62030;SDS011;62035;52.094;5.112;2023-07-30T02:08:01;15.45;;;4.20;;
62030;SDS011;62035;52.094;5.112;2023-07-30T02:10:28;12.00;;;2.95;;
62030;SDS011;62035;52.094;5.112;2023-07-30T02:12:57;18.13;;;3.88;;
62030;SDS011;62035;52.094;5.112;2023-07-30T02:15:24;15.68;;;3.65;;
62030;SDS011;62035;52.094;5.112;2023-07-30T02:17:51;21.70;;;3.15;;
62030;SDS011;62035;52.094;5.112;2023-07-30T02:20:18;17.45;;;3.47;;
62030;SDS011;62035;52.094;5.112;2023-07-30T02:22:46;11.85;;;2.85;;
62030;SDS011;62035;52.094;5.112;2023-07-30T02:25:13;11.15;;;3.38;;
62030;SDS011;62035;52.094;5.112;2023-07-30T02:27:40;18.38;;;3.28;;
62030;SDS011;62035;52.094;5.112;2023-07-30T02:30:09;18.30;;;3.28;;
62030;SDS011;62035;52.094;5.112;2023-07-30T02:32:37;15.93;;;3.35;;
62030;SDS011;62035;52.094;5.112;2023-07-30T02:35:04;16.65;;;3.13;;
62030;SDS011;62035;52.094;5.112;2023-07-30T02:37:32;12.23;;;2.83;;
62030;SDS011;62035;52.094;5.112;2023-07-30T02:39:59;16.30;;;3.90;;
62030;SDS011;62035;52.094;5.112;2023-07-30T02:42:28;14.77;;;3.10;;
62030;SDS011;62035;52.094;5.112;2023-07-30T02:44:55;20.45;;;4.47;;
62030;SDS011;62035;52.094;5.112;2023-07-30T02:47:24;20.48;;;3.60;;
62030;SDS011;62035;52.094;5.112;2023-07-30T02:49:51;19.88;;;3.83;;
62030;SDS011;62035;52.094;5.112;2023-07-30T02:52:18;15.07;;;4.30;;
62030;SDS011;62035;52.094;5.112;2023-07-30T02:54:46;15.10;;;3.42;;
62030;SDS011;62035;52.094;5.112;2023-07-30T02:57:13;13.32;;;3.90;;
62030;SDS011;62035;52.094;5.112;2023-07-30T02:59:40;15.57;;;4.45;;
62030;SDS011;62035;52.094;5.112;2023-07-30T03:02:08;20.25;;;4.93;;
62030;SDS011;62035;52.094;5.112;2023-07-30T03:04:36;20.83;;;4.13;;
62030;SDS011;62035;52.094;5.112;2023-07-30T03:07:04;20.48;;;4.35;;
62030;SDS011;62035;52.094;5.112;2023-07-30T03:09:32;18.75;;;4.07;;
62030;SDS011;62035;52.094;5.112;2023-07-30T03:11:59;22.50;;;3.72;;
62030;SDS011;62035;52.094;5.112;2023-07-30T03:14:26;21.77;;;4.50;;
62030;SDS011;62035;52.094;5.112;2023-07-30T03:16:53;20.40;;;4.05;;
62030;SDS011;62035;52.094;5.112;2023-07-30T03:19:21;29.40;;;4.50;;
62030;SDS011;62035;52.094;5.112;2023-07-30T03:21:49;27.52;;;4.68;;
62030;SDS011;62035;52.094;5.112;2023-07-30T03:24:17;20.15;;;3.85;;
62030;SDS011;62035;52.094;5.112;2023-07-30T03:26:44;21.02;;;5.00;;
62030;SDS011;62035;52.094;5.112;2023-07-30T03:29:11;24.48;;;4.43;;
62030;SDS011;62035;52.094;5.112;2023-07-30T03:31:38;23.35;;;4.53;;
62030;SDS011;62035;52.094;5.112;2023-07-30T03:34:06;20.88;;;4.78;;
62030;SDS011;62035;52.094;5.112;2023-07-30T03:36:33;24.38;;;4.03;;
62030;SDS011;62035;52.094;5.112;2023-07-30T03:39:02;17.90;;;5.25;;
62030;SDS011;62035;52.094;5.112;2023-07-30T03:41:29;22.75;;;4.38;;
62030;SDS011;62035;52.094;5.112;2023-07-30T03:43:56;22.05;;;4.57;;
62030;SDS011;62035;52.094;5.112;2023-07-30T03:46:23;23.95;;;4.57;;
62030;SDS011;62035;52.094;5.112;2023-07-30T03:48:50;29.23;;;5.03;;
62030;SDS011;62035;52.094;5.112;2023-07-30T03:51:18;22.33;;;4.18;;
62030;SDS011;62035;52.094;5.112;2023-07-30T03:53:45;16.08;;;4.85;;
62030;SDS011;62035;52.094;5.112;2023-07-30T03:56:13;25.50;;;5.28;;
62030;SDS011;62035;52.094;5.112;2023-07-30T03:58:41;24.40;;;4.55;;
62030;SDS011;62035;52.094;5.112;2023-07-30T04:01:08;27.45;;;4.47;;
62030;SDS011;62035;52.094;5.112;2023-07-30T04:03:35;27.50;;;6.50;;
62030;SDS011;62035;52.094;5.112;2023-07-30T04:06:02;22.23;;;4.07;;
62030;SDS011;62035;52.094;5.112;2023-07-30T04:08:30;25.73;;;5.65;;
62030;SDS011;62035;52.094;5.112;2023-07-30T04:10:57;25.45;;;5.38;;
62030;SDS011;62035;52.094;5.112;2023-07-30T04:13:26;26.98;;;4.95;;
62030;SDS011;62035;52.094;5.112;2023-07-30T04:15:53;19.48;;;4.25;;
62030;SDS011;62035;52.094;5.112;2023-07-30T04:18:20;27.35;;;5.40;;
62030;SDS011;62035;52.094;5.112;2023-07-30T04:20:48;30.00;;;6.30;;
62030;SDS011;62035;52.094;5.112;2023-07-30T04:23:15;19.90;;;5.13;;
62030;SDS011;62035;52.094;5.112;2023-07-30T04:25:42;25.63;;;5.03;;
62030;SDS011;62035;52.094;5.112;2023-07-30T04:28:10;29.08;;;5.30;;
62030;SDS011;62035;52.094;5.112;2023-07-30T04:30:38;26.25;;;4.72;;
62030;SDS011;62035;52.094;5.112;2023-07-30T04:33:05;22.60;;;4.72;;
62030;SDS011;62035;52.094;5.112;2023-07-30T04:35:33;24.63;;;4.30;;
62030;SDS011;62035;52.094;5.112;2023-07-30T04:38:00;27.77;;;5.50;;
62030;SDS011;62035;52.094;5.112;2023-07-30T04:40:27;27.33;;;4.93;;
62030;SDS011;62035;52.094;5.112;2023-07-30T04:42:55;30.63;;;5.93;;
62030;SDS011;62035;52.094;5.112;2023-07-30T04:45:23;25.10;;;4.97;;
62030;SDS011;62035;52.094;5.112;2023-07-30T04:47:51;27.58;;;5.63;;
62030;SDS011;62035;52.094;5.112;2023-07-30T04:50:19;24.25;;;6.03;;
62030;SDS011;62035;52.094;5.112;2023-07-30T04:52:46;31.70;;;5.78;;
62030;SDS011;62035;52.094;5.112;2023-07-30T04:55:13;38.97;;;6.00;;
62030;SDS011;62035;52.094;5.112;2023-07-30T04:57:40;22.38;;;5.55;;
62030;SDS011;62035;52.094;5.112;2023-07-30T05:00:08;26.92;;;5.32;;
62030;SDS011;62035;52.094;5.112;2023-07-30T05:02:36;32.83;;;6.35;;
62030;SDS011;62035;52.094;5.112;2023-07-30T05:05:05;30.27;;;5.60;;
62030;SDS011;62035;52.094;5.112;2023-07-30T05:07:33;34.85;;;6.90;;
62030;SDS011;62035;52.094;5.112;2023-07-30T05:10:00;20.95;;;5.15;;
62030;SDS011;62035;52.094;5.112;2023-07-30T05:12:27;29.98;;;5.45;;
62030;SDS011;62035;52.094;5.112;2023-07-30T05:14:54;22.92;;;4.88;;
62030;SDS011;62035;52.094;5.112;2023-07-30T05:17:22;32.10;;;5.93;;
62030;SDS011;62035;52.094;5.112;2023-07-30T05:19:49;27.25;;;5.50;;
62030;SDS011;62035;52.094;5.112;2023-07-30T05:22:17;19.60;;;5.65;;
62030;SDS011;62035;52.094;5.112;2023-07-30T05:24:45;32.00;;;5.10;;
62030;SDS011;62035;52.094;5.112;2023-07-30T05:27:12;24.90;;;6.63;;
62030;SDS011;62035;52.094;5.112;2023-07-30T05:29:39;35.42;;;6.45;;
62030;SDS011;62035;52.094;5.112;2023-07-30T05:32:07;24.00;;;4.68;;
62030;SDS011;62035;52.094;5.112;2023-07-30T05:34:34;26.27;;;4.97;;
62030;SDS011;62035;52.094;5.112;2023-07-30T05:37:02;25.13;;;5.63;;
62030;SDS011;62035;52.094;5.112;2023-07-30T05:39:31;29.40;;;5.20;;
62030;SDS011;62035;52.094;5.112;2023-07-30T05:41:58;27.98;;;4.32;;
62030;SDS011;62035;52.094;5.112;2023-07-30T05:44:25;28.42;;;5.18;;
62030;SDS011;62035;52.094;5.112;2023-07-30T05:46:52;30.13;;;5.25;;
62030;SDS011;62035;52.094;5.112;2023-07-30T05:49:20;26.98;;;7.22;;
62030;SDS011;62035;52.094;5.112;2023-07-30T05:51:47;20.35;;;5.05;;
62030;SDS011;62035;52.094;5.112;2023-07-30T05:54:14;29.08;;;5.40;;
62030;SDS011;62035;52.094;5.112;2023-07-30T05:56:43;22.67;;;4.47;;
62030;SDS011;62035;52.094;5.112;2023-07-30T05:59:10;23.02;;;4.97;;
62030;SDS011;62035;52.094;5.112;2023-07-30T06:01:37;21.85;;;5.45;;
62030;SDS011;62035;52.094;5.112;2023-07-30T06:04:04;31.42;;;5.47;;
62030;SDS011;62035;52.094;5.112;2023-07-30T06:06:32;21.35;;;4.95;;
62030;SDS011;62035;52.094;5.112;2023-07-30T06:08:59;22.90;;;6.38;;
62030;SDS011;62035;52.094;5.112;2023-07-30T06:11:26;26.05;;;5.13;;
62030;SDS011;62035;52.094;5.112;2023-07-30T06:13:55;23.02;;;4.82;;
62030;SDS011;62035;52.094;5.112;2023-07-30T06:16:22;27.83;;;5.40;;
62030;SDS011;62035;52.094;5.112;2023-07-30T06:18:50;20.92;;;4.68;;
62030;SDS011;62035;52.094;5.112;2023-07-30T06:21:17;27.98;;;5.60;;
62030;SDS011;62035;52.094;5.112;2023-07-30T06:23:44;22.52;;;5.00;;
62030;SDS011;62035;52.094;5.112;2023-07-30T06:26:11;27.55;;;5.65;;
62030;SDS011;62035;52.094;5.112;2023-07-30T06:28:39;21.83;;;5.03;;
62030;SDS011;62035;52.094;5.112;2023-07-30T06:31:07;22.80;;;4.25;;
62030;SDS011;62035;52.094;5.112;2023-07-30T06:33:35;22.23;;;4.32;;
62030;SDS011;62035;52.094;5.112;2023-07-30T06:36:03;22.52;;;4.43;;
62030;SDS011;62035;52.094;5.112;2023-07-30T06:38:30;25.08;;;4.45;;
62030;SDS011;62035;52.094;5.112;2023-07-30T06:40:58;20.20;;;4.13;;
62030;SDS011;62035;52.094;5.112;2023-07-30T06:43:25;21.92;;;5.60;;
62030;SDS011;62035;52.094;5.112;2023-07-30T06:45:52;18.08;;;4.32;;
62030;SDS011;62035;52.094;5.112;2023-07-30T06:48:21;22.55;;;4.05;;
62030;SDS011;62035;52.094;5.112;2023-07-30T06:50:48;20.63;;;4.10;;
62030;SDS011;62035;52.094;5.112;2023-07-30T06:53:16;22.40;;;4.68;;
62030;SDS011;62035;52.094;5.112;2023-07-30T06:55:43;27.20;;;4.03;;
62030;SDS011;62035;52.094;5.112;2023-07-30T06:58:10;22.08;;;3.80;;
62030;SDS011;62035;52.094;5.112;2023-07-30T07:00:38;18.90;;;3.72;;
62030;SDS011;62035;52.094;5.112;2023-07-30T07:03:05;21.20;;;4.20;;
62030;SDS011;62035;52.094;5.112;2023-07-30T07:05:34;18.17;;;3.50;;
62030;SDS011;62035;52.094;5.112;2023-07-30T07:08:01;24.60;;;3.75;;
62030;SDS011;62035;52.094;5.112;2023-07-30T07:10:28;26.58;;;4.47;;
62030;SDS011;62035;52.094;5.112;2023-07-30T07:12:55;24.77;;;3.83;;
62030;SDS011;62035;52.094;5.112;2023-07-30T07:15:23;19.90;;;3.80;;
62030;SDS011;62035;52.094;5.112;2023-07-30T07:17:50;21.67;;;3.80;;
62030;SDS011;62035;52.094;5.112;2023-07-30T07:20:17;22.83;;;3.92;;
62030;SDS011;62035;52.094;5.112;2023-07-30T07:22:46;20.65;;;3.90;;
62030;SDS011;62035;52.094;5.112;2023-07-30T07:25:14;12.77;;;3.25;;
62030;SDS011;62035;52.094;5.112;2023-07-30T07:27:44;24.20;;;3.47;;
62030;SDS011;62035;52.094;5.112;2023-07-30T07:30:12;20.77;;;3.33;;
62030;SDS011;62035;52.094;5.112;2023-07-30T07:32:39;24.65;;;3.95;;
62030;SDS011;62035;52.094;5.112;2023-07-30T07:35:07;21.58;;;3.65;;
62030;SDS011;62035;52.094;5.112;2023-07-30T07:37:34;21.60;;;3.92;;
62030;SDS011;62035;52.094;5.112;2023-07-30T07:40:03;20.88;;;3.70;;
62030;SDS011;62035;52.094;5.112;2023-07-30T07:42:33;24.25;;;3.40;;
62030;SDS011;62035;52.094;5.112;2023-07-30T07:45:00;16.17;;;3.33;;
62030;SDS011;62035;52.094;5.112;2023-07-30T07:47:28;18.00;;;3.47;;
62030;SDS011;62035;52.094;5.112;2023-07-30T07:49:55;17.23;;;3.70;;
62030;SDS011;62035;52.094;5.112;2023-07-30T07:52:22;15.68;;;3.33;;
62030;SDS011;62035;52.094;5.112;2023-07-30T07:54:50;25.17;;;4.30;;
62030;SDS011;62035;52.094;5.112;2023-07-30T07:57:18;15.57;;;3.20;;
62030;SDS011;62035;52.094;5.112;2023-07-30T07:59:46;27.17;;;3.72;;
62030;SDS011;62035;52.094;5.112;2023-07-30T08:02:13;15.68;;;3.55;;
62030;SDS011;62035;52.094;5.112;2023-07-30T08:04:40;17.08;;;3.67;;
62030;SDS011;62035;52.094;5.112;2023-07-30T08:07:08;18.00;;;3.78;;
62030;SDS011;62035;52.094;5.112;2023-07-30T08:09:35;22.20;;;4.35;;
62030;SDS011;62035;52.094;5.112;2023-07-30T08:12:02;14.75;;;3.13;;
62030;SDS011;62035;52.094;5.112;2023-07-30T08:14:32;16.52;;;3.20;;
62030;SDS011;62035;52.094;5.112;2023-07-30T08:16:59;15.75;;;3.05;;
62030;SDS011;62035;52.094;5.112;2023-07-30T08:19:26;21.40;;;2.97;;
62030;SDS011;62035;52.094;5.112;2023-07-30T08:21:53;17.80;;;3.40;;
62030;SDS011;62035;52.094;5.112;2023-07-30T08:24:22;18.77;;;3.30;;
62030;SDS011;62035;52.094;5.112;2023-07-30T08:26:49;14.88;;;2.53;;
62030;SDS011;62035;52.094;5.112;2023-07-30T08:29:17;17.67;;;3.03;;
62030;SDS011;62035;52.094;5.112;2023-07-30T08:31:45;11.77;;;2.75;;
62030;SDS011;62035;52.094;5.112;2023-07-30T08:34:13;12.40;;;2.30;;
62030;SDS011;62035;52.094;5.112;2023-07-30T08:36:40;11.75;;;2.38;;
62030;SDS011;62035;52.094;5.112;2023-07-30T08:39:07;18.52;;;2.85;;
62030;SDS011;62035;52.094;5.112;2023-07-30T08:41:35;14.52;;;2.75;;
62030;SDS011;62035;52.094;5.112;2023-07-30T08:44:02;13.55;;;2.80;;
62030;SDS011;62035;52.094;5.112;2023-07-30T08:46:31;12.63;;;3.15;;
62030;SDS011;62035;52.094;5.112;2023-07-30T08:48:59;14.60;;;3.25;;
62030;SDS011;62035;52.094;5.112;2023-07-30T08:51:27;18.33;;;3.38;;
62030;SDS011;62035;52.094;5.112;2023-07-30T08:53:55;18.70;;;3.10;;
62030;SDS011;62035;52.094;5.112;2023-07-30T08:56:24;11.63;;;2.95;;
62030;SDS011;62035;52.094;5.112;2023-07-30T08:58:52;13.38;;;3.15;;
62030;SDS011;62035;52.094;5.112;2023-07-30T09:01:23;18.77;;;3.40;;
62030;SDS011;62035;52.094;5.112;2023-07-30T09:03:55;16.10;;;3.28;;
62030;SDS011;62035;52.094;5.112;2023-07-30T09:06:27;11.05;;;2.50;;
62030;SDS011;62035;52.094;5.112;2023-07-30T09:08:54;17.70;;;3.33;;
62030;SDS011;62035;52.094;5.112;2023-07-30T09:11:24;22.70;;;3.50;;
62030;SDS011;62035;52.094;5.112;2023-07-30T09:13:52;15.87;;;3.27;;
62030;SDS011;62035;52.094;5.112;2023-07-30T09:16:23;20.05;;;3.95;;
62030;SDS011;62035;52.094;5.112;2023-07-30T09:18:52;16.15;;;3.47;;
62030;SDS011;62035;52.094;5.112;2023-07-30T09:21:20;18.40;;;3.95;;
62030;SDS011;62035;52.094;5.112;2023-07-30T09:23:57;12.93;;;3.08;;
62030;SDS011;62035;52.094;5.112;2023-07-30T09:26:38;14.65;;;3.25;;
62030;SDS011;62035;52.094;5.112;2023-07-30T09:29:08;14.98;;;2.95;;
62030;SDS011;62035;52.094;5.112;2023-07-30T09:31:48;18.52;;;2.97;;
62030;SDS011;62035;52.094;5.112;2023-07-30T09:34:20;17.67;;;3.50;;
62030;SDS011;62035;52.094;5.112;2023-07-30T09:36:52;13.50;;;2.65;;
62030;SDS011;62035;52.094;5.112;2023-07-30T09:39:20;10.32;;;2.72;;
62030;SDS011;62035;52.094;5.112;2023-07-30T09:41:48;12.60;;;2.75;;
62030;SDS011;62035;52.094;5.112;2023-07-30T09:44:17;10.15;;;3.17;;
62030;SDS011;62035;52.094;5.112;2023-07-30T09:46:46;16.63;;;3.25;;
62030;SDS011;62035;52.094;5.112;2023-07-30T09:49:14;10.30;;;2.35;;
62030;SDS011;62035;52.094;5.112;2023-07-30T09:51:42;13.55;;;2.88;;
62030;SDS011;62035;52.094;5.112;2023-07-30T09:54:11;13.75;;;2.40;;
62030;SDS011;62035;52.094;5.112;2023-07-30T09:56:40;10.57;;;2.03;;
62030;SDS011;62035;52.094;5.112;2023-07-30T09:59:09;14.90;;;2.28;;
62030;SDS011;62035;52.094;5.112;2023-07-30T10:01:38;8.27;;;2.10;;
62030;SDS011;62035;52.094;5.112;2023-07-30T10:04:09;11.73;;;2.30;;
62030;SDS011;62035;52.094;5.112;2023-07-30T10:06:38;10.18;;;2.20;;
62030;SDS011;62035;52.094;5.112;2023-07-30T10:09:08;10.13;;;1.85;;
62030;SDS011;62035;52.094;5.112;2023-07-30T10:11:39;10.32;;;1.90;;
62030;SDS011;62035;52.094;5.112;2023-07-30T10:14:09;7.97;;;2.08;;
62030;SDS011;62035;52.094;5.112;2023-07-30T10:16:36;16.27;;;2.30;;
62030;SDS011;62035;52.094;5.112;2023-07-30T10:19:03;14.50;;;2.55;;
62030;SDS011;62035;52.094;5.112;2023-07-30T10:21:32;8.43;;;2.13;;
62030;SDS011;62035;52.094;5.112;2023-07-30T10:24:00;14.07;;;2.53;;
62030;SDS011;62035;52.094;5.112;2023-07-30T10:26:30;9.63;;;2.22;;
62030;SDS011;62035;52.094;5.112;2023-07-30T10:29:14;7.93;;;1.88;;
62030;SDS011;62035;52.094;5.112;2023-07-30T10:31:43;8.15;;;2.38;;
62030;SDS011;62035;52.094;5.112;2023-07-30T10:34:14;6.72;;;1.73;;
62030;SDS011;62035;52.094;5.112;2023-07-30T10:36:42;6.63;;;1.88;;
62030;SDS011;62035;52.094;5.112;2023-07-30T10:39:11;10.73;;;2.00;;
62030;SDS011;62035;52.094;5.112;2023-07-30T10:41:42;10.13;;;1.70;;
62030;SDS011;62035;52.094;5.112;2023-07-30T10:44:17;10.07;;;1.65;;
62030;SDS011;62035;52.094;5.112;2023-07-30T10:46:45;13.00;;;1.90;;
62030;SDS011;62035;52.094;5.112;2023-07-30T10:49:12;15.50;;;1.77;;
62030;SDS011;62035;52.094;5.112;2023-07-30T10:51:39;5.72;;;1.75;;
62030;SDS011;62035;52.094;5.112;2023-07-30T10:54:07;5.97;;;1.50;;
62030;SDS011;62035;52.094;5.112;2023-07-30T10:56:34;7.93;;;1.75;;
62030;SDS011;62035;52.094;5.112;2023-07-30T10:59:05;9.23;;;2.20;;
62030;SDS011;62035;52.094;5.112;2023-07-30T11:01:35;7.32;;;1.55;;
62030;SDS011;62035;52.094;5.112;2023-07-30T11:04:11;8.48;;;1.90;;
62030;SDS011;62035;52.094;5.112;2023-07-30T11:06:44;7.38;;;1.95;;
62030;SDS011;62035;52.094;5.112;2023-07-30T11:09:17;6.93;;;1.50;;
62030;SDS011;62035;52.094;5.112;2023-07-30T11:11:46;7.28;;;1.40;;
62030;SDS011;62035;52.094;5.112;2023-07-30T11:14:15;9.10;;;2.10;;
62030;SDS011;62035;52.094;5.112;2023-07-30T11:16:48;7.60;;;1.90;;
62030;SDS011;62035;52.094;5.112;2023-07-30T11:21:44;6.30;;;1.50;;
62030;SDS011;62035;52.094;5.112;2023-07-30T11:24:11;8.43;;;1.80;;
62030;SDS011;62035;52.094;5.112;2023-07-30T11:26:39;9.57;;;1.95;;
62030;SDS011;62035;52.094;5.112;2023-07-30T11:29:13;11.00;;;2.15;;
62030;SDS011;62035;52.094;5.112;2023-07-30T11:31:43;6.18;;;1.80;;
62030;SDS011;62035;52.094;5.112;2023-07-30T11:34:11;10.00;;;2.20;;
62030;SDS011;62035;52.094;5.112;2023-07-30T11:36:39;11.90;;;1.88;;
62030;SDS011;62035;52.094;5.112;2023-07-30T11:39:08;8.40;;;2.08;;
62030;SDS011;62035;52.094;5.112;2023-07-30T11:41:37;5.95;;;1.73;;
62030;SDS011;62035;52.094;5.112;2023-07-30T11:44:05;8.38;;;1.77;;
62030;SDS011;62035;52.094;5.112;2023-07-30T11:46:33;7.53;;;1.80;;
62030;SDS011;62035;52.094;5.112;2023-07-30T11:49:11;6.95;;;1.63;;
62030;SDS011;62035;52.094;5.112;2023-07-30T11:51:39;6.88;;;1.60;;
62030;SDS011;62035;52.094;5.112;2023-07-30T11:54:07;9.95;;;1.83;;
62030;SDS011;62035;52.094;5.112;2023-07-30T11:56:35;10.48;;;1.42;;
62030;SDS011;62035;52.094;5.112;2023-07-30T11:59:04;6.30;;;1.60;;
62030;SDS011;62035;52.094;5.112;2023-07-30T12:01:35;8.60;;;1.58;;
62030;SDS011;62035;52.094;5.112;2023-07-30T12:04:03;5.65;;;1.50;;
62030;SDS011;62035;52.094;5.112;2023-07-30T12:06:38;6.55;;;1.52;;
62030;SDS011;62035;52.094;5.112;2023-07-30T12:09:10;8.27;;;1.60;;
62030;SDS011;62035;52.094;5.112;2023-07-30T12:14:10;10.38;;;1.60;;
62030;SDS011;62035;52.094;5.112;2023-07-30T12:16:39;7.82;;;1.50;;
62030;SDS011;62035;52.094;5.112;2023-07-30T12:19:06;6.65;;;1.98;;
62030;SDS011;62035;52.094;5.112;2023-07-30T12:21:33;7.78;;;1.88;;
62030;SDS011;62035;52.094;5.112;2023-07-30T12:24:01;5.95;;;1.50;;
62030;SDS011;62035;52.094;5.112;2023-07-30T12:26:30;4.57;;;1.50;;
62030;SDS011;62035;52.094;5.112;2023-07-30T12:28:58;4.07;;;1.02;;
62030;SDS011;62035;52.094;5.112;2023-07-30T12:31:25;8.25;;;1.92;;
62030;SDS011;62035;52.094;5.112;2023-07-30T12:33:54;6.80;;;1.38;;
62030;SDS011;62035;52.094;5.112;2023-07-30T12:36:21;6.47;;;1.55;;
62030;SDS011;62035;52.094;5.112;2023-07-30T12:38:49;11.52;;;1.60;;
62030;SDS011;62035;52.094;5.112;2023-07-30T12:41:17;8.85;;;1.60;;
62030;SDS011;62035;52.094;5.112;2023-07-30T12:43:51;5.38;;;1.30;;
62030;SDS011;62035;52.094;5.112;2023-07-30T12:46:19;6.07;;;1.30;;
62030;SDS011;62035;52.094;5.112;2023-07-30T12:48:46;4.90;;;1.30;;
62030;SDS011;62035;52.094;5.112;2023-07-30T12:51:15;8.82;;;1.63;;
62030;SDS011;62035;52.094;5.112;2023-07-30T12:53:42;4.55;;;1.30;;
62030;SDS011;62035;52.094;5.112;2023-07-30T12:56:09;7.32;;;1.55;;
62030;SDS011;62035;52.094;5.112;2023-07-30T12:58:37;7.07;;;1.33;;
62030;SDS011;62035;52.094;5.112;2023-07-30T13:01:05;5.55;;;1.20;;
62030;SDS011;62035;52.094;5.112;2023-07-30T13:03:32;6.80;;;1.40;;
62030;SDS011;62035;52.094;5.112;2023-07-30T13:06:00;2.63;;;1.00;;
62030;SDS011;62035;52.094;5.112;2023-07-30T13:08:28;7.50;;;1.45;;
62030;SDS011;62035;52.094;5.112;2023-07-30T13:10:56;5.47;;;1.20;;
62030;SDS011;62035;52.094;5.112;2023-07-30T13:13:24;5.28;;;1.30;;
62030;SDS011;62035;52.094;5.112;2023-07-30T13:15:51;8.38;;;1.48;;
62030;SDS011;62035;52.094;5.112;2023-07-30T13:18:23;5.05;;;1.35;;
62030;SDS011;62035;52.094;5.112;2023-07-30T13:20:50;9.45;;;1.50;;
62030;SDS011;62035;52.094;5.112;2023-07-30T13:23:17;7.28;;;1.67;;
62030;SDS011;62035;52.094;5.112;2023-07-30T13:25:46;4.75;;;1.40;;
62030;SDS011;62035;52.094;5.112;2023-07-30T13:28:13;7.28;;;1.67;;
62030;SDS011;62035;52.094;5.112;2023-07-30T13:30:41;8.73;;;1.30;;
62030;SDS011;62035;52.094;5.112;2023-07-30T13:33:08;8.90;;;1.38;;
62030;SDS011;62035;52.094;5.112;2023-07-30T13:35:35;7.25;;;1.50;;
62030;SDS011;62035;52.094;5.112;2023-07-30T13:38:02;9.23;;;2.20;;
62030;SDS011;62035;52.094;5.112;2023-07-30T13:40:30;4.30;;;1.33;;
62030;SDS011;62035;52.094;5.112;2023-07-30T13:42:58;4.72;;;1.30;;
62030;SDS011;62035;52.094;5.112;2023-07-30T13:45:26;7.32;;;1.90;;
62030;SDS011;62035;52.094;5.112;2023-07-30T13:47:53;13.80;;;2.00;;
62030;SDS011;62035;52.094;5.112;2023-07-30T13:50:21;8.07;;;2.28;;
62030;SDS011;62035;52.094;5.112;2023-07-30T13:52:48;13.57;;;4.00;;
62030;SDS011;62035;52.094;5.112;2023-07-30T13:55:15;9.40;;;2.00;;
62030;SDS011;62035;52.094;5.112;2023-07-30T13:57:43;5.55;;;1.63;;
62030;SDS011;62035;52.094;5.112;2023-07-30T14:00:12;11.00;;;2.70;;
62030;SDS011;62035;52.094;5.112;2023-07-30T14:02:40;6.95;;;1.70;;
62030;SDS011;62035;52.094;5.112;2023-07-30T14:05:09;8.18;;;1.90;;
62030;SDS011;62035;52.094;5.112;2023-07-30T14:07:37;5.90;;;1.48;;
62030;SDS011;62035;52.094;5.112;2023-07-30T14:10:06;7.95;;;2.08;;
62030;SDS011;62035;52.094;5.112;2023-07-30T14:12:33;14.00;;;1.90;;
62030;SDS011;62035;52.094;5.112;2023-07-30T14:15:01;12.23;;;2.22;;
62030;SDS011;62035;52.094;5.112;2023-07-30T14:17:30;9.00;;;1.95;;
62030;SDS011;62035;52.094;5.112;2023-07-30T14:19:57;6.10;;;1.70;;
62030;SDS011;62035;52.094;5.112;2023-07-30T14:22:25;9.02;;;2.20;;
62030;SDS011;62035;52.094;5.112;2023-07-30T14:24:52;8.75;;;1.83;;
62030;SDS011;62035;52.094;5.112;2023-07-30T14:27:21;11.05;;;1.92;;
62030;SDS011;62035;52.094;5.112;2023-07-30T14:29:50;10.27;;;2.08;;
62030;SDS011;62035;52.094;5.112;2023-07-30T14:32:19;10.57;;;2.22;;
62030;SDS011;62035;52.094;5.112;2023-07-30T14:34:48;6.72;;;1.75;;
62030;SDS011;62035;52.094;5.112;2023-07-30T14:37:15;11.20;;;2.25;;
62030;SDS011;62035;52.094;5.112;2023-07-30T14:39:42;7.68;;;1.90;;
62030;SDS011;62035;52.094;5.112;2023-07-30T14:42:11;15.02;;;2.13;;
62030;SDS011;62035;52.094;5.112;2023-07-30T14:44:38;9.90;;;2.30;;
62030;SDS011;62035;52.094;5.112;2023-07-30T14:47:06;13.52;;;2.70;;
62030;SDS011;62035;52.094;5.112;2023-07-30T14:49:34;13.38;;;2.20;;